sensor_id;sensor_type;location;lat;lon;timestamp;P1;durP1;ratioP1;P2;durP2;ratioP2
70975;SDS011;58635;51.198;6.010;2022-10-01T00:00:20;6.63;;;3.97;;
70975;SDS011;58635;51.198;6.010;2022-10-01T00:02:46;6.55;;;3.90;;
70975;SDS011;58635;51.198;6.010;2022-10-01T00:05:11;7.05;;;3.70;;
70975;SDS011;58635;51.198;6.010;2022-10-01T00:07:41;6.68;;;3.72;;
70975;SDS011;58635;51.198;6.010;2022-10-01T00:10:09;8.35;;;3.35;;
70975;SDS011;58635;51.198;6.010;2022-10-01T00:12:37;5.90;;;3.30;;
70975;SDS011;58635;51.198;6.010;2022-10-01T00:15:03;5.63;;;3.20;;
70975;SDS011;58635;51.198;6.010;2022-10-01T00:17:33;6.05;;;3.78;;
70975;SDS011;58635;51.198;6.010;2022-10-01T00:19:59;5.65;;;3.20;;
70975;SDS011;58635;51.198;6.010;2022-10-01T00:22:25;5.85;;;3.47;;
70975;SDS011;58635;51.198;6.010;2022-10-01T00:24:51;6.50;;;3.80;;
70975;SDS011;58635;51.198;6.010;2022-10-01T00:27:16;5.70;;;3.72;;
70975;SDS011;58635;51.198;6.010;2022-10-01T00:29:42;5.07;;;3.38;;
70975;SDS011;58635;51.198;6.010;2022-10-01T00:32:09;6.93;;;3.60;;
70975;SDS011;58635;51.198;6.010;2022-10-01T00:34:34;5.50;;;3.30;;
70975;SDS011;58635;51.198;6.010;2022-10-01T00:37:00;6.15;;;3.53;;
70975;SDS011;58635;51.198;6.010;2022-10-01T00:39:25;5.18;;;3.65;;
70975;SDS011;58635;51.198;6.010;2022-10-01T00:41:51;5.47;;;3.30;;
70975;SDS011;58635;51.198;6.010;2022-10-01T00:44:33;5.07;;;3.22;;
70975;SDS011;58635;51.198;6.010;2022-10-01T00:47:02;4.72;;;3.35;;
70975;SDS011;58635;51.198;6.010;2022-10-01T00:49:28;4.13;;;3.17;;
70975;SDS011;58635;51.198;6.010;2022-10-01T00:51:58;4.97;;;3.33;;
70975;SDS011;58635;51.198;6.010;2022-10-01T00:54:30;4.07;;;2.90;;
70975;SDS011;58635;51.198;6.010;2022-10-01T00:57:01;5.78;;;2.88;;
70975;SDS011;58635;51.198;6.010;2022-10-01T00:59:29;4.90;;;3.00;;
70975;SDS011;58635;51.198;6.010;2022-10-01T01:01:55;6.75;;;2.97;;
70975;SDS011;58635;51.198;6.010;2022-10-01T01:04:21;4.55;;;3.10;;
70975;SDS011;58635;51.198;6.010;2022-10-01T01:06:50;4.60;;;2.90;;
70975;SDS011;58635;51.198;6.010;2022-10-01T01:09:44;4.28;;;2.83;;
70975;SDS011;58635;51.198;6.010;2022-10-01T01:18:03;5.28;;;3.00;;
70975;SDS011;58635;51.198;6.010;2022-10-01T01:23:29;4.68;;;3.10;;
70975;SDS011;58635;51.198;6.010;2022-10-01T01:29:03;5.68;;;3.03;;
70975;SDS011;58635;51.198;6.010;2022-10-01T01:31:39;4.10;;;3.08;;
70975;SDS011;58635;51.198;6.010;2022-10-01T01:34:14;4.05;;;2.83;;
70975;SDS011;58635;51.198;6.010;2022-10-01T01:36:49;5.28;;;2.85;;
70975;SDS011;58635;51.198;6.010;2022-10-01T01:39:20;3.92;;;2.83;;
70975;SDS011;58635;51.198;6.010;2022-10-01T01:41:50;4.63;;;2.90;;
70975;SDS011;58635;51.198;6.010;2022-10-01T01:44:25;5.43;;;3.30;;
70975;SDS011;58635;51.198;6.010;2022-10-01T01:49:22;5.03;;;3.17;;
70975;SDS011;58635;51.198;6.010;2022-10-01T01:51:50;5.30;;;3.08;;
70975;SDS011;58635;51.198;6.010;2022-10-01T01:54:23;4.30;;;2.97;;
70975;SDS011;58635;51.198;6.010;2022-10-01T01:56:49;4.88;;;3.17;;
70975;SDS011;58635;51.198;6.010;2022-10-01T01:59:16;4.82;;;3.17;;
70975;SDS011;58635;51.198;6.010;2022-10-01T02:01:43;5.35;;;2.80;;
70975;SDS011;58635;51.198;6.010;2022-10-01T02:04:14;4.88;;;2.63;;
70975;SDS011;58635;51.198;6.010;2022-10-01T02:12:14;5.75;;;2.65;;
70975;SDS011;58635;51.198;6.010;2022-10-01T02:20:51;3.78;;;2.38;;
70975;SDS011;58635;51.198;6.010;2022-10-01T02:23:24;4.95;;;2.30;;
70975;SDS011;58635;51.198;6.010;2022-10-01T02:25:56;3.65;;;2.40;;
70975;SDS011;58635;51.198;6.010;2022-10-01T02:28:25;2.80;;;2.20;;
70975;SDS011;58635;51.198;6.010;2022-10-01T02:30:53;3.22;;;2.10;;
70975;SDS011;58635;51.198;6.010;2022-10-01T02:33:23;4.22;;;2.03;;
70975;SDS011;58635;51.198;6.010;2022-10-01T02:35:54;4.88;;;2.10;;
70975;SDS011;58635;51.198;6.010;2022-10-01T02:38:22;3.50;;;2.10;;
70975;SDS011;58635;51.198;6.010;2022-10-01T02:40:51;2.70;;;1.60;;
70975;SDS011;58635;51.198;6.010;2022-10-01T02:43:23;4.45;;;1.83;;
70975;SDS011;58635;51.198;6.010;2022-10-01T02:45:58;2.10;;;1.50;;
70975;SDS011;58635;51.198;6.010;2022-10-01T02:48:30;3.22;;;1.60;;
70975;SDS011;58635;51.198;6.010;2022-10-01T02:50:59;4.20;;;1.63;;
70975;SDS011;58635;51.198;6.010;2022-10-01T02:53:31;3.55;;;1.73;;
70975;SDS011;58635;51.198;6.010;2022-10-01T02:56:02;2.65;;;1.55;;
70975;SDS011;58635;51.198;6.010;2022-10-01T02:58:30;3.05;;;1.48;;
70975;SDS011;58635;51.198;6.010;2022-10-01T03:00:56;1.75;;;1.20;;
70975;SDS011;58635;51.198;6.010;2022-10-01T03:03:21;3.90;;;1.25;;
70975;SDS011;58635;51.198;6.010;2022-10-01T03:05:49;2.55;;;1.20;;
70975;SDS011;58635;51.198;6.010;2022-10-01T03:08:15;1.98;;;1.30;;
70975;SDS011;58635;51.198;6.010;2022-10-01T03:10:40;2.72;;;1.20;;
70975;SDS011;58635;51.198;6.010;2022-10-01T03:13:06;2.10;;;1.00;;
70975;SDS011;58635;51.198;6.010;2022-10-01T03:15:32;1.17;;;0.90;;
70975;SDS011;58635;51.198;6.010;2022-10-01T03:17:57;2.05;;;1.00;;
70975;SDS011;58635;51.198;6.010;2022-10-01T03:20:22;1.77;;;1.08;;
70975;SDS011;58635;51.198;6.010;2022-10-01T03:22:48;1.38;;;0.90;;
70975;SDS011;58635;51.198;6.010;2022-10-01T03:25:14;2.95;;;1.00;;
70975;SDS011;58635;51.198;6.010;2022-10-01T03:27:40;1.90;;;0.93;;
70975;SDS011;58635;51.198;6.010;2022-10-01T03:30:06;2.08;;;0.93;;
70975;SDS011;58635;51.198;6.010;2022-10-01T03:32:32;1.83;;;0.90;;
70975;SDS011;58635;51.198;6.010;2022-10-01T03:34:58;1.52;;;0.95;;
70975;SDS011;58635;51.198;6.010;2022-10-01T03:37:23;1.40;;;0.90;;
70975;SDS011;58635;51.198;6.010;2022-10-01T03:39:49;2.05;;;1.05;;
70975;SDS011;58635;51.198;6.010;2022-10-01T03:42:14;1.38;;;0.70;;
70975;SDS011;58635;51.198;6.010;2022-10-01T03:44:40;1.85;;;0.70;;
70975;SDS011;58635;51.198;6.010;2022-10-01T03:47:06;1.52;;;0.77;;
70975;SDS011;58635;51.198;6.010;2022-10-01T03:49:32;1.10;;;0.70;;
70975;SDS011;58635;51.198;6.010;2022-10-01T03:51:58;1.92;;;0.70;;
70975;SDS011;58635;51.198;6.010;2022-10-01T03:54:24;1.20;;;0.70;;
70975;SDS011;58635;51.198;6.010;2022-10-01T03:56:50;1.17;;;0.75;;
70975;SDS011;58635;51.198;6.010;2022-10-01T03:59:16;1.10;;;0.80;;
70975;SDS011;58635;51.198;6.010;2022-10-01T04:01:41;1.27;;;0.55;;
70975;SDS011;58635;51.198;6.010;2022-10-01T04:04:07;1.00;;;0.60;;
70975;SDS011;58635;51.198;6.010;2022-10-01T04:06:32;0.82;;;0.50;;
70975;SDS011;58635;51.198;6.010;2022-10-01T04:08:57;1.08;;;0.60;;
70975;SDS011;58635;51.198;6.010;2022-10-01T04:11:23;1.35;;;0.52;;
70975;SDS011;58635;51.198;6.010;2022-10-01T04:13:48;0.60;;;0.50;;
70975;SDS011;58635;51.198;6.010;2022-10-01T04:16:14;0.95;;;0.50;;
70975;SDS011;58635;51.198;6.010;2022-10-01T04:18:40;0.68;;;0.50;;
70975;SDS011;58635;51.198;6.010;2022-10-01T04:21:05;0.98;;;0.50;;
70975;SDS011;58635;51.198;6.010;2022-10-01T04:23:31;0.73;;;0.50;;
70975;SDS011;58635;51.198;6.010;2022-10-01T04:25:57;1.60;;;0.50;;
70975;SDS011;58635;51.198;6.010;2022-10-01T04:28:24;2.10;;;0.52;;
70975;SDS011;58635;51.198;6.010;2022-10-01T04:30:49;0.50;;;0.50;;
70975;SDS011;58635;51.198;6.010;2022-10-01T04:33:34;0.85;;;0.40;;
70975;SDS011;58635;51.198;6.010;2022-10-01T04:36:00;1.98;;;0.60;;
70975;SDS011;58635;51.198;6.010;2022-10-01T04:38:25;0.75;;;0.50;;
70975;SDS011;58635;51.198;6.010;2022-10-01T04:40:51;1.52;;;0.57;;
70975;SDS011;58635;51.198;6.010;2022-10-01T04:43:16;2.17;;;0.57;;
70975;SDS011;58635;51.198;6.010;2022-10-01T04:45:41;2.45;;;0.52;;
70975;SDS011;58635;51.198;6.010;2022-10-01T04:48:07;1.75;;;0.60;;
70975;SDS011;58635;51.198;6.010;2022-10-01T04:50:32;1.67;;;0.60;;
70975;SDS011;58635;51.198;6.010;2022-10-01T04:52:58;1.52;;;0.70;;
70975;SDS011;58635;51.198;6.010;2022-10-01T04:55:23;0.82;;;0.50;;
70975;SDS011;58635;51.198;6.010;2022-10-01T04:57:49;2.30;;;0.50;;
70975;SDS011;58635;51.198;6.010;2022-10-01T05:00:16;0.82;;;0.52;;
70975;SDS011;58635;51.198;6.010;2022-10-01T05:02:44;1.52;;;0.60;;
70975;SDS011;58635;51.198;6.010;2022-10-01T05:05:13;0.68;;;0.40;;
70975;SDS011;58635;51.198;6.010;2022-10-01T05:07:40;0.93;;;0.60;;
70975;SDS011;58635;51.198;6.010;2022-10-01T05:10:12;1.30;;;0.55;;
70975;SDS011;58635;51.198;6.010;2022-10-01T05:12:39;0.70;;;0.60;;
70975;SDS011;58635;51.198;6.010;2022-10-01T05:15:05;2.05;;;0.55;;
70975;SDS011;58635;51.198;6.010;2022-10-01T05:17:31;1.17;;;0.65;;
70975;SDS011;58635;51.198;6.010;2022-10-01T05:19:57;0.40;;;0.40;;
70975;SDS011;58635;51.198;6.010;2022-10-01T05:22:23;1.73;;;0.50;;
70975;SDS011;58635;51.198;6.010;2022-10-01T05:24:53;3.15;;;0.57;;
70975;SDS011;58635;51.198;6.010;2022-10-01T05:27:18;1.20;;;0.50;;
70975;SDS011;58635;51.198;6.010;2022-10-01T05:29:43;1.48;;;0.57;;
70975;SDS011;58635;51.198;6.010;2022-10-01T05:32:10;1.33;;;0.50;;
70975;SDS011;58635;51.198;6.010;2022-10-01T05:34:36;1.20;;;0.50;;
70975;SDS011;58635;51.198;6.010;2022-10-01T05:37:02;1.88;;;0.50;;
70975;SDS011;58635;51.198;6.010;2022-10-01T05:39:28;0.63;;;0.40;;
70975;SDS011;58635;51.198;6.010;2022-10-01T05:41:55;1.15;;;0.50;;
70975;SDS011;58635;51.198;6.010;2022-10-01T05:44:21;0.40;;;0.40;;
70975;SDS011;58635;51.198;6.010;2022-10-01T05:46:48;0.90;;;0.43;;
70975;SDS011;58635;51.198;6.010;2022-10-01T05:49:14;0.70;;;0.50;;
70975;SDS011;58635;51.198;6.010;2022-10-01T05:51:41;0.47;;;0.45;;
70975;SDS011;58635;51.198;6.010;2022-10-01T05:54:07;0.43;;;0.40;;
70975;SDS011;58635;51.198;6.010;2022-10-01T05:56:33;0.65;;;0.40;;
70975;SDS011;58635;51.198;6.010;2022-10-01T05:58:59;0.57;;;0.40;;
70975;SDS011;58635;51.198;6.010;2022-10-01T06:01:24;0.90;;;0.50;;
70975;SDS011;58635;51.198;6.010;2022-10-01T06:03:53;0.43;;;0.40;;
70975;SDS011;58635;51.198;6.010;2022-10-01T06:06:19;0.68;;;0.40;;
70975;SDS011;58635;51.198;6.010;2022-10-01T06:08:46;0.60;;;0.40;;
70975;SDS011;58635;51.198;6.010;2022-10-01T06:11:11;0.98;;;0.60;;
70975;SDS011;58635;51.198;6.010;2022-10-01T06:13:37;1.30;;;0.70;;
70975;SDS011;58635;51.198;6.010;2022-10-01T06:16:02;1.50;;;0.55;;
70975;SDS011;58635;51.198;6.010;2022-10-01T06:18:27;0.85;;;0.50;;
70975;SDS011;58635;51.198;6.010;2022-10-01T06:20:53;1.13;;;0.40;;
70975;SDS011;58635;51.198;6.010;2022-10-01T06:23:18;0.40;;;0.40;;
70975;SDS011;58635;51.198;6.010;2022-10-01T06:25:43;0.82;;;0.40;;
70975;SDS011;58635;51.198;6.010;2022-10-01T06:28:10;0.47;;;0.40;;
70975;SDS011;58635;51.198;6.010;2022-10-01T06:30:37;0.30;;;0.30;;
70975;SDS011;58635;51.198;6.010;2022-10-01T06:33:04;0.98;;;0.40;;
70975;SDS011;58635;51.198;6.010;2022-10-01T06:35:31;0.63;;;0.40;;
70975;SDS011;58635;51.198;6.010;2022-10-01T06:37:58;0.45;;;0.40;;
70975;SDS011;58635;51.198;6.010;2022-10-01T06:40:27;0.40;;;0.40;;
70975;SDS011;58635;51.198;6.010;2022-10-01T06:42:53;0.57;;;0.43;;
70975;SDS011;58635;51.198;6.010;2022-10-01T06:45:26;3.55;;;0.55;;
70975;SDS011;58635;51.198;6.010;2022-10-01T06:47:57;0.50;;;0.50;;
70975;SDS011;58635;51.198;6.010;2022-10-01T06:52:52;1.02;;;0.63;;
70975;SDS011;58635;51.198;6.010;2022-10-01T06:55:19;1.70;;;0.50;;
70975;SDS011;58635;51.198;6.010;2022-10-01T06:57:55;0.98;;;0.50;;
70975;SDS011;58635;51.198;6.010;2022-10-01T07:00:22;1.95;;;0.50;;
70975;SDS011;58635;51.198;6.010;2022-10-01T07:02:48;2.63;;;0.50;;
70975;SDS011;58635;51.198;6.010;2022-10-01T07:05:14;3.00;;;0.60;;
70975;SDS011;58635;51.198;6.010;2022-10-01T07:07:40;2.63;;;0.50;;
70975;SDS011;58635;51.198;6.010;2022-10-01T07:10:06;0.90;;;0.50;;
70975;SDS011;58635;51.198;6.010;2022-10-01T07:12:33;2.10;;;0.65;;
70975;SDS011;58635;51.198;6.010;2022-10-01T07:14:59;1.38;;;0.50;;
70975;SDS011;58635;51.198;6.010;2022-10-01T07:17:25;0.45;;;0.45;;
70975;SDS011;58635;51.198;6.010;2022-10-01T07:19:51;0.68;;;0.40;;
70975;SDS011;58635;51.198;6.010;2022-10-01T07:22:16;2.28;;;1.35;;
70975;SDS011;58635;51.198;6.010;2022-10-01T07:24:43;2.60;;;1.00;;
70975;SDS011;58635;51.198;6.010;2022-10-01T07:27:10;1.42;;;0.65;;
70975;SDS011;58635;51.198;6.010;2022-10-01T07:29:35;3.47;;;1.15;;
70975;SDS011;58635;51.198;6.010;2022-10-01T07:32:01;0.95;;;0.60;;
70975;SDS011;58635;51.198;6.010;2022-10-01T07:34:28;1.25;;;0.77;;
70975;SDS011;58635;51.198;6.010;2022-10-01T07:36:56;3.10;;;0.70;;
70975;SDS011;58635;51.198;6.010;2022-10-01T07:39:22;1.13;;;0.60;;
70975;SDS011;58635;51.198;6.010;2022-10-01T07:41:48;1.58;;;0.80;;
70975;SDS011;58635;51.198;6.010;2022-10-01T07:44:15;0.93;;;0.65;;
70975;SDS011;58635;51.198;6.010;2022-10-01T07:46:40;2.53;;;0.70;;
70975;SDS011;58635;51.198;6.010;2022-10-01T07:49:06;1.10;;;0.57;;
70975;SDS011;58635;51.198;6.010;2022-10-01T07:51:33;1.98;;;0.50;;
70975;SDS011;58635;51.198;6.010;2022-10-01T07:53:58;1.27;;;0.60;;
70975;SDS011;58635;51.198;6.010;2022-10-01T07:56:24;2.58;;;0.60;;
70975;SDS011;58635;51.198;6.010;2022-10-01T07:58:56;4.03;;;0.70;;
70975;SDS011;58635;51.198;6.010;2022-10-01T08:01:23;2.45;;;0.77;;
70975;SDS011;58635;51.198;6.010;2022-10-01T08:03:49;2.03;;;1.00;;
70975;SDS011;58635;51.198;6.010;2022-10-01T08:06:15;3.60;;;1.10;;
70975;SDS011;58635;51.198;6.010;2022-10-01T08:08:42;1.10;;;0.80;;
70975;SDS011;58635;51.198;6.010;2022-10-01T08:11:07;2.80;;;0.70;;
70975;SDS011;58635;51.198;6.010;2022-10-01T08:13:34;2.60;;;0.82;;
70975;SDS011;58635;51.198;6.010;2022-10-01T08:16:01;4.13;;;0.98;;
70975;SDS011;58635;51.198;6.010;2022-10-01T08:18:28;2.90;;;1.00;;
70975;SDS011;58635;51.198;6.010;2022-10-01T08:20:53;3.65;;;1.80;;
70975;SDS011;58635;51.198;6.010;2022-10-01T08:23:19;3.15;;;1.40;;
70975;SDS011;58635;51.198;6.010;2022-10-01T08:25:45;2.90;;;0.95;;
70975;SDS011;58635;51.198;6.010;2022-10-01T08:28:12;2.22;;;0.90;;
70975;SDS011;58635;51.198;6.010;2022-10-01T08:30:38;5.88;;;1.20;;
70975;SDS011;58635;51.198;6.010;2022-10-01T08:33:06;2.25;;;1.05;;
70975;SDS011;58635;51.198;6.010;2022-10-01T08:35:36;2.78;;;1.08;;
70975;SDS011;58635;51.198;6.010;2022-10-01T08:38:03;3.17;;;1.20;;
70975;SDS011;58635;51.198;6.010;2022-10-01T08:40:33;2.25;;;1.20;;
70975;SDS011;58635;51.198;6.010;2022-10-01T08:43:05;2.20;;;1.10;;
70975;SDS011;58635;51.198;6.010;2022-10-01T08:45:37;4.13;;;1.25;;
70975;SDS011;58635;51.198;6.010;2022-10-01T08:51:03;3.72;;;1.30;;
70975;SDS011;58635;51.198;6.010;2022-10-01T08:53:52;2.80;;;1.30;;
70975;SDS011;58635;51.198;6.010;2022-10-01T08:56:29;1.67;;;1.30;;
70975;SDS011;58635;51.198;6.010;2022-10-01T08:58:59;3.42;;;1.13;;
70975;SDS011;58635;51.198;6.010;2022-10-01T09:01:29;4.50;;;1.10;;
70975;SDS011;58635;51.198;6.010;2022-10-01T09:03:55;2.60;;;1.10;;
70975;SDS011;58635;51.198;6.010;2022-10-01T09:06:22;2.78;;;1.10;;
70975;SDS011;58635;51.198;6.010;2022-10-01T09:12:03;5.60;;;1.25;;
70975;SDS011;58635;51.198;6.010;2022-10-01T09:23:09;8.13;;;1.63;;
70975;SDS011;58635;51.198;6.010;2022-10-01T09:28:28;19.40;;;2.08;;
70975;SDS011;58635;51.198;6.010;2022-10-01T09:30:56;42.78;;;4.22;;
70975;SDS011;58635;51.198;6.010;2022-10-01T09:33:32;9.65;;;1.50;;
70975;SDS011;58635;51.198;6.010;2022-10-01T09:38:36;10.18;;;1.70;;
70975;SDS011;58635;51.198;6.010;2022-10-01T09:41:05;6.90;;;1.25;;
70975;SDS011;58635;51.198;6.010;2022-10-01T09:43:33;7.82;;;1.88;;
70975;SDS011;58635;51.198;6.010;2022-10-01T09:46:02;5.43;;;1.77;;
70975;SDS011;58635;51.198;6.010;2022-10-01T09:51:09;13.77;;;2.58;;
70975;SDS011;58635;51.198;6.010;2022-10-01T09:56:35;6.30;;;2.38;;
70975;SDS011;58635;51.198;6.010;2022-10-01T09:59:07;6.97;;;2.35;;
70975;SDS011;58635;51.198;6.010;2022-10-01T10:01:43;6.70;;;2.28;;
70975;SDS011;58635;51.198;6.010;2022-10-01T10:04:16;7.13;;;2.70;;
70975;SDS011;58635;51.198;6.010;2022-10-01T10:06:47;8.02;;;2.72;;
70975;SDS011;58635;51.198;6.010;2022-10-01T10:09:14;10.02;;;2.90;;
70975;SDS011;58635;51.198;6.010;2022-10-01T10:11:42;9.18;;;3.10;;
70975;SDS011;58635;51.198;6.010;2022-10-01T10:14:19;9.40;;;3.10;;
70975;SDS011;58635;51.198;6.010;2022-10-01T10:17:14;14.68;;;4.20;;
70975;SDS011;58635;51.198;6.010;2022-10-01T10:19:48;14.05;;;4.10;;
70975;SDS011;58635;51.198;6.010;2022-10-01T10:22:23;20.23;;;4.68;;
70975;SDS011;58635;51.198;6.010;2022-10-01T10:24:53;13.32;;;3.65;;
70975;SDS011;58635;51.198;6.010;2022-10-01T10:27:26;19.60;;;4.40;;
70975;SDS011;58635;51.198;6.010;2022-10-01T10:30:03;27.08;;;4.90;;
70975;SDS011;58635;51.198;6.010;2022-10-01T10:32:30;21.00;;;4.38;;
70975;SDS011;58635;51.198;6.010;2022-10-01T10:34:58;10.30;;;3.42;;
70975;SDS011;58635;51.198;6.010;2022-10-01T10:37:31;10.23;;;3.05;;
70975;SDS011;58635;51.198;6.010;2022-10-01T10:40:00;14.73;;;3.20;;
70975;SDS011;58635;51.198;6.010;2022-10-01T10:42:27;8.15;;;2.83;;
70975;SDS011;58635;51.198;6.010;2022-10-01T10:44:53;14.25;;;2.92;;
70975;SDS011;58635;51.198;6.010;2022-10-01T10:47:21;8.07;;;2.38;;
70975;SDS011;58635;51.198;6.010;2022-10-01T10:49:55;6.90;;;2.25;;
70975;SDS011;58635;51.198;6.010;2022-10-01T10:52:33;7.28;;;2.30;;
70975;SDS011;58635;51.198;6.010;2022-10-01T10:55:15;8.35;;;2.10;;
70975;SDS011;58635;51.198;6.010;2022-10-01T10:57:45;6.82;;;2.40;;
70975;SDS011;58635;51.198;6.010;2022-10-01T11:05:24;9.20;;;2.30;;
70975;SDS011;58635;51.198;6.010;2022-10-01T11:07:54;9.88;;;2.53;;
70975;SDS011;58635;51.198;6.010;2022-10-01T11:13:07;7.97;;;2.75;;
70975;SDS011;58635;51.198;6.010;2022-10-01T11:18:45;6.78;;;1.98;;
70975;SDS011;58635;51.198;6.010;2022-10-01T11:27:11;7.38;;;1.98;;
70975;SDS011;58635;51.198;6.010;2022-10-01T11:40:22;11.52;;;2.65;;
70975;SDS011;58635;51.198;6.010;2022-10-01T11:42:52;7.32;;;2.20;;
70975;SDS011;58635;51.198;6.010;2022-10-01T11:45:24;6.47;;;2.30;;
70975;SDS011;58635;51.198;6.010;2022-10-01T11:48:18;13.05;;;3.08;;
70975;SDS011;58635;51.198;6.010;2022-10-01T11:50:48;11.15;;;2.42;;
70975;SDS011;58635;51.198;6.010;2022-10-01T11:55:57;11.30;;;2.47;;
70975;SDS011;58635;51.198;6.010;2022-10-01T11:58:54;9.90;;;2.58;;
70975;SDS011;58635;51.198;6.010;2022-10-01T12:01:28;10.65;;;2.88;;
70975;SDS011;58635;51.198;6.010;2022-10-01T12:04:00;12.45;;;2.83;;
70975;SDS011;58635;51.198;6.010;2022-10-01T12:12:37;12.02;;;2.85;;
70975;SDS011;58635;51.198;6.010;2022-10-01T12:15:11;10.50;;;2.75;;
70975;SDS011;58635;51.198;6.010;2022-10-01T12:17:43;11.40;;;2.92;;
70975;SDS011;58635;51.198;6.010;2022-10-01T12:23:15;11.95;;;2.90;;
70975;SDS011;58635;51.198;6.010;2022-10-01T12:28:48;12.63;;;3.20;;
70975;SDS011;58635;51.198;6.010;2022-10-01T12:31:30;16.05;;;3.03;;
70975;SDS011;58635;51.198;6.010;2022-10-01T12:36:50;10.65;;;2.20;;
70975;SDS011;58635;51.198;6.010;2022-10-01T12:45:12;11.60;;;2.28;;
70975;SDS011;58635;51.198;6.010;2022-10-01T12:47:57;10.15;;;2.55;;
70975;SDS011;58635;51.198;6.010;2022-10-01T13:01:06;9.10;;;2.00;;
70975;SDS011;58635;51.198;6.010;2022-10-01T13:07:07;9.15;;;2.08;;
70975;SDS011;58635;51.198;6.010;2022-10-01T13:09:42;14.85;;;2.63;;
70975;SDS011;58635;51.198;6.010;2022-10-01T13:14:53;6.70;;;1.90;;
70975;SDS011;58635;51.198;6.010;2022-10-01T13:20:15;13.45;;;2.42;;
70975;SDS011;58635;51.198;6.010;2022-10-01T13:22:56;9.38;;;1.90;;
70975;SDS011;58635;51.198;6.010;2022-10-01T13:33:31;12.20;;;2.53;;
70975;SDS011;58635;51.198;6.010;2022-10-01T13:36:06;10.27;;;2.00;;
70975;SDS011;58635;51.198;6.010;2022-10-01T13:43:47;8.02;;;2.08;;
70975;SDS011;58635;51.198;6.010;2022-10-01T13:46:21;9.65;;;2.00;;
70975;SDS011;58635;51.198;6.010;2022-10-01T13:48:48;11.38;;;2.15;;
70975;SDS011;58635;51.198;6.010;2022-10-01T13:51:14;23.88;;;3.03;;
70975;SDS011;58635;51.198;6.010;2022-10-01T13:56:05;16.80;;;2.90;;
70975;SDS011;58635;51.198;6.010;2022-10-01T13:58:35;27.95;;;3.47;;
70975;SDS011;58635;51.198;6.010;2022-10-01T14:01:05;12.32;;;2.55;;
70975;SDS011;58635;51.198;6.010;2022-10-01T14:03:50;39.22;;;5.57;;
70975;SDS011;58635;51.198;6.010;2022-10-01T14:06:23;19.70;;;3.35;;
70975;SDS011;58635;51.198;6.010;2022-10-01T14:11:52;22.95;;;3.45;;
70975;SDS011;58635;51.198;6.010;2022-10-01T14:15:18;16.90;;;2.97;;
70975;SDS011;58635;51.198;6.010;2022-10-01T14:17:58;15.47;;;2.87;;
70975;SDS011;58635;51.198;6.010;2022-10-01T14:20:29;84.70;;;8.15;;
70975;SDS011;58635;51.198;6.010;2022-10-01T14:25:45;161.52;;;12.10;;
70975;SDS011;58635;51.198;6.010;2022-10-01T14:36:29;23.92;;;5.03;;
70975;SDS011;58635;51.198;6.010;2022-10-01T14:39:40;19.20;;;3.00;;
70975;SDS011;58635;51.198;6.010;2022-10-01T14:41:50;16.15;;;3.03;;
70975;SDS011;58635;51.198;6.010;2022-10-01T14:46:53;15.80;;;2.58;;
70975;SDS011;58635;51.198;6.010;2022-10-01T14:51:49;9.68;;;2.53;;
70975;SDS011;58635;51.198;6.010;2022-10-01T14:54:18;12.63;;;2.90;;
70975;SDS011;58635;51.198;6.010;2022-10-01T14:56:45;9.80;;;2.60;;
70975;SDS011;58635;51.198;6.010;2022-10-01T14:59:17;12.77;;;2.80;;
70975;SDS011;58635;51.198;6.010;2022-10-01T15:01:53;15.00;;;2.20;;
70975;SDS011;58635;51.198;6.010;2022-10-01T15:04:43;10.57;;;2.10;;
70975;SDS011;58635;51.198;6.010;2022-10-01T15:07:11;12.68;;;2.30;;
70975;SDS011;58635;51.198;6.010;2022-10-01T15:09:37;15.98;;;2.13;;
70975;SDS011;58635;51.198;6.010;2022-10-01T15:12:04;9.73;;;1.90;;
70975;SDS011;58635;51.198;6.010;2022-10-01T15:14:30;9.70;;;2.00;;
70975;SDS011;58635;51.198;6.010;2022-10-01T15:16:57;14.32;;;2.20;;
70975;SDS011;58635;51.198;6.010;2022-10-01T15:19:27;9.95;;;2.05;;
70975;SDS011;58635;51.198;6.010;2022-10-01T15:21:53;10.88;;;2.75;;
70975;SDS011;58635;51.198;6.010;2022-10-01T15:24:39;8.50;;;2.05;;
70975;SDS011;58635;51.198;6.010;2022-10-01T15:27:12;10.48;;;2.00;;
70975;SDS011;58635;51.198;6.010;2022-10-01T15:29:40;13.60;;;2.35;;
70975;SDS011;58635;51.198;6.010;2022-10-01T15:32:07;7.65;;;2.20;;
70975;SDS011;58635;51.198;6.010;2022-10-01T15:34:40;13.57;;;2.70;;
70975;SDS011;58635;51.198;6.010;2022-10-01T15:37:11;10.02;;;1.98;;
70975;SDS011;58635;51.198;6.010;2022-10-01T15:39:47;12.35;;;2.30;;
70975;SDS011;58635;51.198;6.010;2022-10-01T15:45:18;8.30;;;2.05;;
70975;SDS011;58635;51.198;6.010;2022-10-01T15:47:47;7.80;;;2.20;;
70975;SDS011;58635;51.198;6.010;2022-10-01T15:52:48;9.35;;;2.33;;
70975;SDS011;58635;51.198;6.010;2022-10-01T15:58:20;6.72;;;1.70;;
70975;SDS011;58635;51.198;6.010;2022-10-01T16:03:26;7.55;;;1.60;;
70975;SDS011;58635;51.198;6.010;2022-10-01T16:05:57;9.95;;;2.00;;
70975;SDS011;58635;51.198;6.010;2022-10-01T16:08:26;5.40;;;1.73;;
70975;SDS011;58635;51.198;6.010;2022-10-01T16:13:41;11.32;;;1.83;;
70975;SDS011;58635;51.198;6.010;2022-10-01T16:18:37;9.63;;;2.35;;
70975;SDS011;58635;51.198;6.010;2022-10-01T16:21:04;10.95;;;2.67;;
70975;SDS011;58635;51.198;6.010;2022-10-01T16:23:47;8.30;;;2.05;;
70975;SDS011;58635;51.198;6.010;2022-10-01T16:26:27;7.85;;;1.95;;
70975;SDS011;58635;51.198;6.010;2022-10-01T16:29:06;7.43;;;1.75;;
70975;SDS011;58635;51.198;6.010;2022-10-01T16:31:46;6.45;;;1.52;;
70975;SDS011;58635;51.198;6.010;2022-10-01T16:34:13;8.18;;;2.00;;
70975;SDS011;58635;51.198;6.010;2022-10-01T16:36:41;8.07;;;1.77;;
70975;SDS011;58635;51.198;6.010;2022-10-01T16:39:07;8.55;;;2.08;;
70975;SDS011;58635;51.198;6.010;2022-10-01T16:41:33;9.07;;;1.80;;
70975;SDS011;58635;51.198;6.010;2022-10-01T16:44:00;7.43;;;1.85;;
70975;SDS011;58635;51.198;6.010;2022-10-01T16:46:27;9.32;;;1.95;;
70975;SDS011;58635;51.198;6.010;2022-10-01T16:48:52;10.27;;;2.28;;
70975;SDS011;58635;51.198;6.010;2022-10-01T16:51:18;10.32;;;2.30;;
70975;SDS011;58635;51.198;6.010;2022-10-01T16:53:45;9.95;;;2.38;;
70975;SDS011;58635;51.198;6.010;2022-10-01T16:56:12;12.65;;;2.58;;
70975;SDS011;58635;51.198;6.010;2022-10-01T16:58:38;8.20;;;2.50;;
70975;SDS011;58635;51.198;6.010;2022-10-01T17:01:04;10.70;;;3.33;;
70975;SDS011;58635;51.198;6.010;2022-10-01T17:03:32;8.10;;;2.60;;
70975;SDS011;58635;51.198;6.010;2022-10-01T17:05:58;9.98;;;2.20;;
70975;SDS011;58635;51.198;6.010;2022-10-01T17:08:24;10.15;;;2.00;;
70975;SDS011;58635;51.198;6.010;2022-10-01T17:10:50;11.77;;;2.10;;
70975;SDS011;58635;51.198;6.010;2022-10-01T17:15:48;9.15;;;2.13;;
70975;SDS011;58635;51.198;6.010;2022-10-01T17:18:15;11.98;;;2.63;;
70975;SDS011;58635;51.198;6.010;2022-10-01T17:20:41;8.05;;;2.13;;
70975;SDS011;58635;51.198;6.010;2022-10-01T17:23:08;10.38;;;2.40;;
70975;SDS011;58635;51.198;6.010;2022-10-01T17:25:35;9.93;;;2.63;;
70975;SDS011;58635;51.198;6.010;2022-10-01T17:28:03;11.43;;;2.97;;
70975;SDS011;58635;51.198;6.010;2022-10-01T17:30:30;9.70;;;2.53;;
70975;SDS011;58635;51.198;6.010;2022-10-01T17:32:57;8.82;;;1.95;;
70975;SDS011;58635;51.198;6.010;2022-10-01T17:35:24;9.23;;;2.88;;
70975;SDS011;58635;51.198;6.010;2022-10-01T17:37:50;10.32;;;2.80;;
70975;SDS011;58635;51.198;6.010;2022-10-01T17:40:16;9.88;;;2.05;;
70975;SDS011;58635;51.198;6.010;2022-10-01T17:42:41;11.25;;;2.53;;
70975;SDS011;58635;51.198;6.010;2022-10-01T17:45:08;11.57;;;2.30;;
70975;SDS011;58635;51.198;6.010;2022-10-01T17:47:35;10.43;;;2.80;;
70975;SDS011;58635;51.198;6.010;2022-10-01T17:50:01;8.70;;;2.20;;
70975;SDS011;58635;51.198;6.010;2022-10-01T17:52:28;13.00;;;2.10;;
70975;SDS011;58635;51.198;6.010;2022-10-01T17:54:53;10.50;;;2.30;;